sensor_id;sensor_type;location;lat;lon;timestamp;temperature;humidity
74081;SHT31;62438;52.228;6.864;2022-08-03T00:00:18;18.71;77.16
74081;SHT31;62438;52.228;6.864;2022-08-03T00:02:18;18.67;76.75
74081;SHT31;62438;52.228;6.864;2022-08-03T00:04:19;18.67;76.86
74081;SHT31;62438;52.228;6.864;2022-08-03T00:06:19;18.63;77.05
74081;SHT31;62438;52.228;6.864;2022-08-03T00:08:19;18.59;77.67
74081;SHT31;62438;52.228;6.864;2022-08-03T00:10:20;18.57;77.33
74081;SHT31;62438;52.228;6.864;2022-08-03T00:12:20;18.57;77.66
74081;SHT31;62438;52.228;6.864;2022-08-03T00:14:21;18.53;77.92
74081;SHT31;62438;52.228;6.864;2022-08-03T00:16:21;18.49;78.55
74081;SHT31;62438;52.228;6.864;2022-08-03T00:18:23;18.45;78.34
74081;SHT31;62438;52.228;6.864;2022-08-03T00:20:24;18.43;78.73
74081;SHT31;62438;52.228;6.864;2022-08-03T00:22:24;18.40;79.18
74081;SHT31;62438;52.228;6.864;2022-08-03T00:24:25;18.36;78.91
74081;SHT31;62438;52.228;6.864;2022-08-03T00:26:25;18.36;79.53
74081;SHT31;62438;52.228;6.864;2022-08-03T00:28:26;18.46;79.70
74081;SHT31;62438;52.228;6.864;2022-08-03T00:30:27;18.39;79.59
74081;SHT31;62438;52.228;6.864;2022-08-03T00:32:27;18.39;79.58
74081;SHT31;62438;52.228;6.864;2022-08-03T00:34:28;18.42;79.28
74081;SHT31;62438;52.228;6.864;2022-08-03T00:36:29;18.39;79.30
74081;SHT31;62438;52.228;6.864;2022-08-03T00:38:29;18.32;79.68
74081;SHT31;62438;52.228;6.864;2022-08-03T00:40:31;18.32;79.22
74081;SHT31;62438;52.228;6.864;2022-08-03T00:42:31;18.25;79.42
74081;SHT31;62438;52.228;6.864;2022-08-03T00:44:39;18.25;79.34
74081;SHT31;62438;52.228;6.864;2022-08-03T00:46:40;18.26;79.89
74081;SHT31;62438;52.228;6.864;2022-08-03T00:48:40;18.22;80.07
74081;SHT31;62438;52.228;6.864;2022-08-03T00:50:41;18.22;80.36
74081;SHT31;62438;52.228;6.864;2022-08-03T00:52:42;18.16;80.51
74081;SHT31;62438;52.228;6.864;2022-08-03T00:54:43;18.15;80.53
74081;SHT31;62438;52.228;6.864;2022-08-03T00:56:44;18.09;80.82
74081;SHT31;62438;52.228;6.864;2022-08-03T00:58:45;18.08;80.98
74081;SHT31;62438;52.228;6.864;2022-08-03T01:00:45;18.06;80.99
74081;SHT31;62438;52.228;6.864;2022-08-03T01:02:46;18.05;81.52
74081;SHT31;62438;52.228;6.864;2022-08-03T01:04:46;17.99;81.64
74081;SHT31;62438;52.228;6.864;2022-08-03T01:07:05;18.02;81.62
74081;SHT31;62438;52.228;6.864;2022-08-03T01:09:13;17.95;81.76
74081;SHT31;62438;52.228;6.864;2022-08-03T01:20:34;17.81;82.68
74081;SHT31;62438;52.228;6.864;2022-08-03T01:28:01;17.70;83.30
74081;SHT31;62438;52.228;6.864;2022-08-03T01:34:46;17.53;83.66
74081;SHT31;62438;52.228;6.864;2022-08-03T01:36:51;17.53;83.89
74081;SHT31;62438;52.228;6.864;2022-08-03T01:38:56;17.57;83.95
74081;SHT31;62438;52.228;6.864;2022-08-03T01:41:03;17.57;83.99
74081;SHT31;62438;52.228;6.864;2022-08-03T01:43:05;17.53;84.03
74081;SHT31;62438;52.228;6.864;2022-08-03T01:45:08;17.47;84.32
74081;SHT31;62438;52.228;6.864;2022-08-03T01:47:10;17.42;84.57
74081;SHT31;62438;52.228;6.864;2022-08-03T01:49:12;17.34;84.82
74081;SHT31;62438;52.228;6.864;2022-08-03T01:51:14;17.30;84.93
74081;SHT31;62438;52.228;6.864;2022-08-03T01:53:16;17.30;85.46
74081;SHT31;62438;52.228;6.864;2022-08-03T01:55:19;17.29;85.37
74081;SHT31;62438;52.228;6.864;2022-08-03T01:57:20;17.30;85.44
74081;SHT31;62438;52.228;6.864;2022-08-03T01:59:21;17.32;85.51
74081;SHT31;62438;52.228;6.864;2022-08-03T02:01:24;17.27;85.72
74081;SHT31;62438;52.228;6.864;2022-08-03T02:03:24;17.23;85.72
74081;SHT31;62438;52.228;6.864;2022-08-03T02:05:26;17.27;85.69
74081;SHT31;62438;52.228;6.864;2022-08-03T02:07:28;17.26;85.85
74081;SHT31;62438;52.228;6.864;2022-08-03T02:09:30;17.29;85.77
74081;SHT31;62438;52.228;6.864;2022-08-03T02:11:31;17.24;85.83
74081;SHT31;62438;52.228;6.864;2022-08-03T02:13:34;17.23;85.72
74081;SHT31;62438;52.228;6.864;2022-08-03T02:15:38;17.27;85.63
74081;SHT31;62438;52.228;6.864;2022-08-03T02:17:39;17.27;85.68
74081;SHT31;62438;52.228;6.864;2022-08-03T02:19:42;17.33;86.09
74081;SHT31;62438;52.228;6.864;2022-08-03T02:21:44;17.34;85.98
74081;SHT31;62438;52.228;6.864;2022-08-03T02:23:45;17.40;85.47
74081;SHT31;62438;52.228;6.864;2022-08-03T02:25:50;17.36;85.38
74081;SHT31;62438;52.228;6.864;2022-08-03T02:27:55;17.36;85.50
74081;SHT31;62438;52.228;6.864;2022-08-03T02:30:07;17.36;85.67
74081;SHT31;62438;52.228;6.864;2022-08-03T02:32:11;17.34;85.76
74081;SHT31;62438;52.228;6.864;2022-08-03T02:34:14;17.33;85.84
74081;SHT31;62438;52.228;6.864;2022-08-03T02:36:19;17.27;85.79
74081;SHT31;62438;52.228;6.864;2022-08-03T02:38:30;17.32;85.88
74081;SHT31;62438;52.228;6.864;2022-08-03T02:40:32;17.36;85.95
74081;SHT31;62438;52.228;6.864;2022-08-03T02:42:34;17.34;85.99
74081;SHT31;62438;52.228;6.864;2022-08-03T02:44:36;17.33;85.85
74081;SHT31;62438;52.228;6.864;2022-08-03T02:46:41;17.37;85.77
74081;SHT31;62438;52.228;6.864;2022-08-03T02:48:45;17.36;86.20
74081;SHT31;62438;52.228;6.864;2022-08-03T02:50:47;17.32;86.30
74081;SHT31;62438;52.228;6.864;2022-08-03T02:52:50;17.36;86.20
74081;SHT31;62438;52.228;6.864;2022-08-03T02:54:53;17.37;86.34
74081;SHT31;62438;52.228;6.864;2022-08-03T02:56:56;17.53;86.03
74081;SHT31;62438;52.228;6.864;2022-08-03T02:58:58;17.54;85.82
74081;SHT31;62438;52.228;6.864;2022-08-03T03:00:59;17.55;85.85
74081;SHT31;62438;52.228;6.864;2022-08-03T03:03:01;17.53;86.21
74081;SHT31;62438;52.228;6.864;2022-08-03T03:05:02;17.55;86.10
74081;SHT31;62438;52.228;6.864;2022-08-03T03:07:03;17.51;86.53
74081;SHT31;62438;52.228;6.864;2022-08-03T03:09:04;17.51;86.50
74081;SHT31;62438;52.228;6.864;2022-08-03T03:11:06;17.50;86.66
74081;SHT31;62438;52.228;6.864;2022-08-03T03:13:08;17.50;86.79
74081;SHT31;62438;52.228;6.864;2022-08-03T03:15:09;17.51;86.64
74081;SHT31;62438;52.228;6.864;2022-08-03T03:17:11;17.51;87.06
74081;SHT31;62438;52.228;6.864;2022-08-03T03:19:13;17.49;87.22
74081;SHT31;62438;52.228;6.864;2022-08-03T03:21:16;17.44;87.69
74081;SHT31;62438;52.228;6.864;2022-08-03T03:23:19;17.47;87.63
74081;SHT31;62438;52.228;6.864;2022-08-03T03:25:21;17.40;87.33
74081;SHT31;62438;52.228;6.864;2022-08-03T03:27:22;17.36;87.76
74081;SHT31;62438;52.228;6.864;2022-08-03T03:29:22;17.40;87.64
74081;SHT31;62438;52.228;6.864;2022-08-03T03:31:23;17.42;87.63
74081;SHT31;62438;52.228;6.864;2022-08-03T03:33:24;17.42;88.04
74081;SHT31;62438;52.228;6.864;2022-08-03T03:35:26;17.37;88.16
74081;SHT31;62438;52.228;6.864;2022-08-03T03:37:26;17.36;88.54
74081;SHT31;62438;52.228;6.864;2022-08-03T03:39:27;17.33;88.33
74081;SHT31;62438;52.228;6.864;2022-08-03T03:41:28;17.43;88.49
74081;SHT31;62438;52.228;6.864;2022-08-03T03:43:28;17.40;88.55
74081;SHT31;62438;52.228;6.864;2022-08-03T03:45:30;17.42;88.36
74081;SHT31;62438;52.228;6.864;2022-08-03T03:47:31;17.49;88.27
74081;SHT31;62438;52.228;6.864;2022-08-03T03:49:32;17.49;88.51
74081;SHT31;62438;52.228;6.864;2022-08-03T03:51:33;17.51;88.63
74081;SHT31;62438;52.228;6.864;2022-08-03T03:53:34;17.59;88.46
74081;SHT31;62438;52.228;6.864;2022-08-03T03:55:34;17.53;88.81
74081;SHT31;62438;52.228;6.864;2022-08-03T03:57:34;17.47;88.70
74081;SHT31;62438;52.228;6.864;2022-08-03T03:59:39;17.43;89.09
74081;SHT31;62438;52.228;6.864;2022-08-03T04:01:40;17.43;89.26
74081;SHT31;62438;52.228;6.864;2022-08-03T04:03:40;17.42;89.29
74081;SHT31;62438;52.228;6.864;2022-08-03T04:05:41;17.54;88.86
74081;SHT31;62438;52.228;6.864;2022-08-03T04:08:04;17.61;88.76
74081;SHT31;62438;52.228;6.864;2022-08-03T04:10:27;17.63;88.85
74081;SHT31;62438;52.228;6.864;2022-08-03T04:12:50;17.77;88.44
74081;SHT31;62438;52.228;6.864;2022-08-03T04:14:53;17.90;88.04
74081;SHT31;62438;52.228;6.864;2022-08-03T04:16:58;17.92;88.05
74081;SHT31;62438;52.228;6.864;2022-08-03T04:19:08;17.92;87.93
74081;SHT31;62438;52.228;6.864;2022-08-03T04:21:11;18.04;87.66
74081;SHT31;62438;52.228;6.864;2022-08-03T04:23:15;18.13;87.21
74081;SHT31;62438;52.228;6.864;2022-08-03T04:25:19;18.15;87.19
74081;SHT31;62438;52.228;6.864;2022-08-03T04:27:22;18.22;86.91
74081;SHT31;62438;52.228;6.864;2022-08-03T04:29:25;18.22;87.08
74081;SHT31;62438;52.228;6.864;2022-08-03T04:31:26;18.15;87.15
74081;SHT31;62438;52.228;6.864;2022-08-03T04:33:28;18.24;86.95
74081;SHT31;62438;52.228;6.864;2022-08-03T04:35:33;18.35;86.51
74081;SHT31;62438;52.228;6.864;2022-08-03T04:37:41;18.38;86.55
74081;SHT31;62438;52.228;6.864;2022-08-03T04:39:43;18.29;87.16
74081;SHT31;62438;52.228;6.864;2022-08-03T04:41:44;18.43;86.25
74081;SHT31;62438;52.228;6.864;2022-08-03T04:43:46;18.45;86.30
74081;SHT31;62438;52.228;6.864;2022-08-03T04:45:49;18.50;86.26
74081;SHT31;62438;52.228;6.864;2022-08-03T04:47:50;18.56;86.02
74081;SHT31;62438;52.228;6.864;2022-08-03T04:49:51;18.59;85.72
74081;SHT31;62438;52.228;6.864;2022-08-03T04:51:52;18.63;85.47
74081;SHT31;62438;52.228;6.864;2022-08-03T04:53:53;18.64;85.57
74081;SHT31;62438;52.228;6.864;2022-08-03T04:55:53;18.70;85.16
74081;SHT31;62438;52.228;6.864;2022-08-03T04:57:55;18.73;85.12
74081;SHT31;62438;52.228;6.864;2022-08-03T04:59:55;18.76;85.05
74081;SHT31;62438;52.228;6.864;2022-08-03T05:01:55;18.83;84.34
74081;SHT31;62438;52.228;6.864;2022-08-03T05:03:56;18.87;84.30
74081;SHT31;62438;52.228;6.864;2022-08-03T05:05:56;18.88;84.77
74081;SHT31;62438;52.228;6.864;2022-08-03T05:07:57;18.91;84.41
74081;SHT31;62438;52.228;6.864;2022-08-03T05:09:57;19.01;84.05
74081;SHT31;62438;52.228;6.864;2022-08-03T05:11:57;19.07;83.94
74081;SHT31;62438;52.228;6.864;2022-08-03T05:13:58;19.17;83.52
74081;SHT31;62438;52.228;6.864;2022-08-03T05:15:58;19.22;83.61
74081;SHT31;62438;52.228;6.864;2022-08-03T05:17:59;19.27;83.72
74081;SHT31;62438;52.228;6.864;2022-08-03T05:20:00;19.27;83.70
74081;SHT31;62438;52.228;6.864;2022-08-03T05:22:00;19.38;83.27
74081;SHT31;62438;52.228;6.864;2022-08-03T05:24:01;19.45;83.13
74081;SHT31;62438;52.228;6.864;2022-08-03T05:26:01;19.54;82.61
74081;SHT31;62438;52.228;6.864;2022-08-03T05:28:01;19.66;82.10
74081;SHT31;62438;52.228;6.864;2022-08-03T05:30:02;19.80;81.80
74081;SHT31;62438;52.228;6.864;2022-08-03T05:32:03;19.83;81.83
74081;SHT31;62438;52.228;6.864;2022-08-03T05:34:07;19.89;81.75
74081;SHT31;62438;52.228;6.864;2022-08-03T05:36:07;20.01;81.37
74081;SHT31;62438;52.228;6.864;2022-08-03T05:38:08;20.09;81.09
74081;SHT31;62438;52.228;6.864;2022-08-03T05:40:08;20.24;80.67
74081;SHT31;62438;52.228;6.864;2022-08-03T05:42:09;20.47;80.34
74081;SHT31;62438;52.228;6.864;2022-08-03T05:44:09;20.52;79.57
74081;SHT31;62438;52.228;6.864;2022-08-03T05:46:10;20.62;79.35
74081;SHT31;62438;52.228;6.864;2022-08-03T05:48:10;20.72;79.14
74081;SHT31;62438;52.228;6.864;2022-08-03T05:50:11;20.85;78.45
74081;SHT31;62438;52.228;6.864;2022-08-03T05:52:12;20.96;78.37
74081;SHT31;62438;52.228;6.864;2022-08-03T05:54:12;21.09;77.89
74081;SHT31;62438;52.228;6.864;2022-08-03T05:56:13;21.20;77.15
74081;SHT31;62438;52.228;6.864;2022-08-03T05:58:13;21.30;77.00
74081;SHT31;62438;52.228;6.864;2022-08-03T06:00:14;21.30;77.25
74081;SHT31;62438;52.228;6.864;2022-08-03T06:02:15;21.40;76.99
74081;SHT31;62438;52.228;6.864;2022-08-03T06:04:15;21.49;76.38
74081;SHT31;62438;52.228;6.864;2022-08-03T06:06:16;21.61;76.53
74081;SHT31;62438;52.228;6.864;2022-08-03T06:08:16;21.68;75.91
74081;SHT31;62438;52.228;6.864;2022-08-03T06:10:20;21.64;76.09
74081;SHT31;62438;52.228;6.864;2022-08-03T06:12:20;21.71;75.65
74081;SHT31;62438;52.228;6.864;2022-08-03T06:14:21;21.77;76.40
74081;SHT31;62438;52.228;6.864;2022-08-03T06:16:21;21.88;76.27
74081;SHT31;62438;52.228;6.864;2022-08-03T06:18:22;21.89;75.58
74081;SHT31;62438;52.228;6.864;2022-08-03T06:20:23;21.92;76.05
74081;SHT31;62438;52.228;6.864;2022-08-03T06:22:26;22.06;75.57
74081;SHT31;62438;52.228;6.864;2022-08-03T06:24:27;22.12;75.29
74081;SHT31;62438;52.228;6.864;2022-08-03T06:26:27;22.25;75.69
74081;SHT31;62438;52.228;6.864;2022-08-03T06:28:28;22.46;74.48
74081;SHT31;62438;52.228;6.864;2022-08-03T06:30:28;22.49;74.54
74081;SHT31;62438;52.228;6.864;2022-08-03T06:32:28;22.63;74.33
74081;SHT31;62438;52.228;6.864;2022-08-03T06:34:29;22.70;73.33
74081;SHT31;62438;52.228;6.864;2022-08-03T06:36:30;22.74;72.81
74081;SHT31;62438;52.228;6.864;2022-08-03T06:38:30;22.87;72.49
74081;SHT31;62438;52.228;6.864;2022-08-03T06:40:34;23.00;72.24
74081;SHT31;62438;52.228;6.864;2022-08-03T06:42:40;23.03;72.47
74081;SHT31;62438;52.228;6.864;2022-08-03T06:44:40;23.17;71.61
74081;SHT31;62438;52.228;6.864;2022-08-03T06:46:44;23.25;71.11
74081;SHT31;62438;52.228;6.864;2022-08-03T06:48:44;23.32;70.73
74081;SHT31;62438;52.228;6.864;2022-08-03T06:50:45;23.28;70.56
74081;SHT31;62438;52.228;6.864;2022-08-03T06:52:45;23.42;70.00
74081;SHT31;62438;52.228;6.864;2022-08-03T06:54:46;23.41;69.82
74081;SHT31;62438;52.228;6.864;2022-08-03T06:56:47;23.45;69.47
74081;SHT31;62438;52.228;6.864;2022-08-03T06:58:47;23.42;70.03
74081;SHT31;62438;52.228;6.864;2022-08-03T07:00:51;23.38;69.60
74081;SHT31;62438;52.228;6.864;2022-08-03T07:02:52;23.46;69.82
74081;SHT31;62438;52.228;6.864;2022-08-03T07:04:52;23.52;69.61
74081;SHT31;62438;52.228;6.864;2022-08-03T07:06:52;23.58;69.28
74081;SHT31;62438;52.228;6.864;2022-08-03T07:08:54;23.77;69.50
74081;SHT31;62438;52.228;6.864;2022-08-03T07:10:55;23.76;68.64
74081;SHT31;62438;52.228;6.864;2022-08-03T07:12:56;23.96;66.41
74081;SHT31;62438;52.228;6.864;2022-08-03T07:14:57;24.16;67.41
74081;SHT31;62438;52.228;6.864;2022-08-03T07:16:58;24.44;67.48
74081;SHT31;62438;52.228;6.864;2022-08-03T07:18:58;24.42;64.27
74081;SHT31;62438;52.228;6.864;2022-08-03T07:20:58;24.32;64.43
74081;SHT31;62438;52.228;6.864;2022-08-03T07:22:59;24.28;63.85
74081;SHT31;62438;52.228;6.864;2022-08-03T07:24:59;24.31;63.98
74081;SHT31;62438;52.228;6.864;2022-08-03T07:27:00;24.24;64.32
74081;SHT31;62438;52.228;6.864;2022-08-03T07:29:00;24.13;64.27
74081;SHT31;62438;52.228;6.864;2022-08-03T07:31:01;24.10;64.80
74081;SHT31;62438;52.228;6.864;2022-08-03T07:33:01;24.13;65.04
74081;SHT31;62438;52.228;6.864;2022-08-03T07:35:03;24.17;64.25
74081;SHT31;62438;52.228;6.864;2022-08-03T07:37:03;24.30;65.11
74081;SHT31;62438;52.228;6.864;2022-08-03T07:39:04;24.40;64.19
74081;SHT31;62438;52.228;6.864;2022-08-03T07:41:05;24.58;62.27
74081;SHT31;62438;52.228;6.864;2022-08-03T07:43:05;24.68;61.76
74081;SHT31;62438;52.228;6.864;2022-08-03T07:45:06;24.72;61.66
74081;SHT31;62438;52.228;6.864;2022-08-03T07:47:07;24.76;62.39
74081;SHT31;62438;52.228;6.864;2022-08-03T07:49:07;24.88;62.21
74081;SHT31;62438;52.228;6.864;2022-08-03T07:51:08;24.92;61.08
74081;SHT31;62438;52.228;6.864;2022-08-03T07:53:08;24.65;60.58
74081;SHT31;62438;52.228;6.864;2022-08-03T07:55:12;24.64;61.42
74081;SHT31;62438;52.228;6.864;2022-08-03T07:57:12;24.67;61.59
74081;SHT31;62438;52.228;6.864;2022-08-03T07:59:12;24.69;60.78
74081;SHT31;62438;52.228;6.864;2022-08-03T08:01:13;24.90;61.16
74081;SHT31;62438;52.228;6.864;2022-08-03T08:03:13;25.03;60.80
74081;SHT31;62438;52.228;6.864;2022-08-03T08:05:14;25.13;60.86
74081;SHT31;62438;52.228;6.864;2022-08-03T08:07:14;25.31;60.13
74081;SHT31;62438;52.228;6.864;2022-08-03T08:09:14;25.51;59.42
74081;SHT31;62438;52.228;6.864;2022-08-03T08:11:15;25.54;59.48
74081;SHT31;62438;52.228;6.864;2022-08-03T08:13:15;25.63;58.60
74081;SHT31;62438;52.228;6.864;2022-08-03T08:15:16;25.51;59.00
74081;SHT31;62438;52.228;6.864;2022-08-03T08:17:16;25.34;59.30
74081;SHT31;62438;52.228;6.864;2022-08-03T08:19:17;25.39;60.48
74081;SHT31;62438;52.228;6.864;2022-08-03T08:21:17;25.53;60.13
74081;SHT31;62438;52.228;6.864;2022-08-03T08:23:18;25.82;59.82
74081;SHT31;62438;52.228;6.864;2022-08-03T08:25:22;25.70;58.56
74081;SHT31;62438;52.228;6.864;2022-08-03T08:27:22;25.73;59.43
74081;SHT31;62438;52.228;6.864;2022-08-03T08:29:23;25.78;58.27
74081;SHT31;62438;52.228;6.864;2022-08-03T08:31:23;25.91;57.55
74081;SHT31;62438;52.228;6.864;2022-08-03T08:33:23;26.18;56.61
74081;SHT31;62438;52.228;6.864;2022-08-03T08:35:24;26.12;56.35
74081;SHT31;62438;52.228;6.864;2022-08-03T08:37:25;26.29;57.06
74081;SHT31;62438;52.228;6.864;2022-08-03T08:39:25;25.95;56.22
74081;SHT31;62438;52.228;6.864;2022-08-03T08:41:26;26.04;56.63
74081;SHT31;62438;52.228;6.864;2022-08-03T08:43:27;26.28;55.45
74081;SHT31;62438;52.228;6.864;2022-08-03T08:45:27;26.43;55.42
74081;SHT31;62438;52.228;6.864;2022-08-03T08:47:30;26.43;55.58
74081;SHT31;62438;52.228;6.864;2022-08-03T08:49:34;26.47;55.33
74081;SHT31;62438;52.228;6.864;2022-08-03T08:51:39;26.39;55.33
74081;SHT31;62438;52.228;6.864;2022-08-03T08:53:41;26.42;54.22
74081;SHT31;62438;52.228;6.864;2022-08-03T08:55:47;26.59;55.27
74081;SHT31;62438;52.228;6.864;2022-08-03T08:58:05;26.52;53.82
74081;SHT31;62438;52.228;6.864;2022-08-03T09:00:10;26.82;54.04
74081;SHT31;62438;52.228;6.864;2022-08-03T09:02:14;26.61;54.95
74081;SHT31;62438;52.228;6.864;2022-08-03T09:04:15;26.64;54.42
74081;SHT31;62438;52.228;6.864;2022-08-03T09:06:15;26.83;53.70
74081;SHT31;62438;52.228;6.864;2022-08-03T09:08:16;26.97;52.95
74081;SHT31;62438;52.228;6.864;2022-08-03T09:10:17;27.22;52.54
74081;SHT31;62438;52.228;6.864;2022-08-03T09:12:20;27.37;53.00
74081;SHT31;62438;52.228;6.864;2022-08-03T09:14:21;27.27;52.24
74081;SHT31;62438;52.228;6.864;2022-08-03T09:16:21;27.39;51.87
74081;SHT31;62438;52.228;6.864;2022-08-03T09:18:28;27.46;51.32
74081;SHT31;62438;52.228;6.864;2022-08-03T09:20:32;27.73;50.71
74081;SHT31;62438;52.228;6.864;2022-08-03T09:22:32;27.56;50.87
74081;SHT31;62438;52.228;6.864;2022-08-03T09:24:33;27.67;52.09
74081;SHT31;62438;52.228;6.864;2022-08-03T09:26:35;27.80;51.62
74081;SHT31;62438;52.228;6.864;2022-08-03T09:28:35;27.70;50.84
74081;SHT31;62438;52.228;6.864;2022-08-03T09:30:40;27.74;51.49
74081;SHT31;62438;52.228;6.864;2022-08-03T09:32:42;28.06;50.80
74081;SHT31;62438;52.228;6.864;2022-08-03T09:34:46;28.18;49.14
74081;SHT31;62438;52.228;6.864;2022-08-03T09:36:48;28.37;49.10
74081;SHT31;62438;52.228;6.864;2022-08-03T09:39:03;28.30;47.78
74081;SHT31;62438;52.228;6.864;2022-08-03T09:41:16;28.69;47.57
74081;SHT31;62438;52.228;6.864;2022-08-03T09:43:17;28.65;45.33
74081;SHT31;62438;52.228;6.864;2022-08-03T09:45:27;28.76;45.98
74081;SHT31;62438;52.228;6.864;2022-08-03T09:47:33;28.82;45.35
74081;SHT31;62438;52.228;6.864;2022-08-03T09:49:38;28.96;45.67
74081;SHT31;62438;52.228;6.864;2022-08-03T09:51:39;29.00;45.19
74081;SHT31;62438;52.228;6.864;2022-08-03T09:53:44;28.80;45.55
74081;SHT31;62438;52.228;6.864;2022-08-03T09:58:06;28.67;45.64
74081;SHT31;62438;52.228;6.864;2022-08-03T10:00:13;28.74;45.94
74081;SHT31;62438;52.228;6.864;2022-08-03T10:02:25;28.88;45.71
74081;SHT31;62438;52.228;6.864;2022-08-03T10:04:26;28.96;45.06
74081;SHT31;62438;52.228;6.864;2022-08-03T10:06:26;29.26;45.13
74081;SHT31;62438;52.228;6.864;2022-08-03T10:08:27;29.05;43.99
74081;SHT31;62438;52.228;6.864;2022-08-03T10:10:41;29.13;45.02
74081;SHT31;62438;52.228;6.864;2022-08-03T10:12:43;29.30;44.39
74081;SHT31;62438;52.228;6.864;2022-08-03T10:14:43;29.20;43.75
74081;SHT31;62438;52.228;6.864;2022-08-03T10:16:48;29.56;43.45
74081;SHT31;62438;52.228;6.864;2022-08-03T10:18:48;29.56;42.39
74081;SHT31;62438;52.228;6.864;2022-08-03T10:20:51;29.49;42.40
74081;SHT31;62438;52.228;6.864;2022-08-03T10:22:53;29.71;42.33
74081;SHT31;62438;52.228;6.864;2022-08-03T10:27:05;30.00;42.71
74081;SHT31;62438;52.228;6.864;2022-08-03T10:29:11;29.89;42.01
74081;SHT31;62438;52.228;6.864;2022-08-03T10:31:15;29.98;42.64
74081;SHT31;62438;52.228;6.864;2022-08-03T10:33:19;30.29;42.52
74081;SHT31;62438;52.228;6.864;2022-08-03T10:35:21;30.16;41.11
74081;SHT31;62438;52.228;6.864;2022-08-03T10:37:24;29.98;41.78
74081;SHT31;62438;52.228;6.864;2022-08-03T10:39:28;29.92;40.72
74081;SHT31;62438;52.228;6.864;2022-08-03T10:41:36;30.43;40.80
74081;SHT31;62438;52.228;6.864;2022-08-03T10:44:05;30.42;40.38
74081;SHT31;62438;52.228;6.864;2022-08-03T10:46:07;30.57;40.02
74081;SHT31;62438;52.228;6.864;2022-08-03T10:48:08;30.64;40.53
74081;SHT31;62438;52.228;6.864;2022-08-03T10:50:09;30.59;39.53
74081;SHT31;62438;52.228;6.864;2022-08-03T10:52:10;30.49;39.89
74081;SHT31;62438;52.228;6.864;2022-08-03T10:54:40;30.63;39.71
74081;SHT31;62438;52.228;6.864;2022-08-03T10:57:01;30.95;40.17
74081;SHT31;62438;52.228;6.864;2022-08-03T11:01:56;31.04;39.34
74081;SHT31;62438;52.228;6.864;2022-08-03T11:06:15;31.08;39.43
74081;SHT31;62438;52.228;6.864;2022-08-03T11:10:29;31.34;38.89
74081;SHT31;62438;52.228;6.864;2022-08-03T11:12:32;31.32;38.07
74081;SHT31;62438;52.228;6.864;2022-08-03T11:14:45;31.59;38.39
74081;SHT31;62438;52.228;6.864;2022-08-03T11:16:51;31.49;37.84
74081;SHT31;62438;52.228;6.864;2022-08-03T11:19:09;31.49;39.25
74081;SHT31;62438;52.228;6.864;2022-08-03T11:21:10;31.45;38.65
74081;SHT31;62438;52.228;6.864;2022-08-03T11:23:14;31.79;38.54
74081;SHT31;62438;52.228;6.864;2022-08-03T11:25:15;31.73;37.83
74081;SHT31;62438;52.228;6.864;2022-08-03T11:29:27;31.87;37.80
74081;SHT31;62438;52.228;6.864;2022-08-03T11:33:31;31.83;36.33
74081;SHT31;62438;52.228;6.864;2022-08-03T11:35:33;32.14;36.02
74081;SHT31;62438;52.228;6.864;2022-08-03T11:37:35;31.94;36.94
74081;SHT31;62438;52.228;6.864;2022-08-03T11:39:43;32.09;36.43
74081;SHT31;62438;52.228;6.864;2022-08-03T11:41:45;32.48;37.40
74081;SHT31;62438;52.228;6.864;2022-08-03T11:43:45;32.44;37.76
74081;SHT31;62438;52.228;6.864;2022-08-03T11:45:59;32.02;36.65
74081;SHT31;62438;52.228;6.864;2022-08-03T11:48:01;32.27;37.20
74081;SHT31;62438;52.228;6.864;2022-08-03T11:50:04;32.33;35.94
74081;SHT31;62438;52.228;6.864;2022-08-03T11:52:05;32.10;36.15
74081;SHT31;62438;52.228;6.864;2022-08-03T11:54:06;32.57;36.67
74081;SHT31;62438;52.228;6.864;2022-08-03T11:56:07;32.19;36.82
74081;SHT31;62438;52.228;6.864;2022-08-03T11:58:07;32.50;37.30
74081;SHT31;62438;52.228;6.864;2022-08-03T12:00:27;32.67;37.55
74081;SHT31;62438;52.228;6.864;2022-08-03T12:02:28;32.88;35.43
74081;SHT31;62438;52.228;6.864;2022-08-03T12:04:28;32.88;35.59
74081;SHT31;62438;52.228;6.864;2022-08-03T12:06:29;32.48;35.67
74081;SHT31;62438;52.228;6.864;2022-08-03T12:08:31;32.54;35.25
74081;SHT31;62438;52.228;6.864;2022-08-03T12:10:32;32.67;35.93
74081;SHT31;62438;52.228;6.864;2022-08-03T12:12:33;32.79;35.43
74081;SHT31;62438;52.228;6.864;2022-08-03T12:14:34;32.85;36.11
74081;SHT31;62438;52.228;6.864;2022-08-03T12:16:35;33.06;34.83
74081;SHT31;62438;52.228;6.864;2022-08-03T12:18:35;32.91;34.61
74081;SHT31;62438;52.228;6.864;2022-08-03T12:20:36;32.71;35.07
74081;SHT31;62438;52.228;6.864;2022-08-03T12:22:39;32.75;34.97
74081;SHT31;62438;52.228;6.864;2022-08-03T12:24:43;33.08;35.27
74081;SHT31;62438;52.228;6.864;2022-08-03T12:26:48;33.15;34.76
74081;SHT31;62438;52.228;6.864;2022-08-03T12:28:49;33.03;34.49
74081;SHT31;62438;52.228;6.864;2022-08-03T12:30:51;32.85;34.31
74081;SHT31;62438;52.228;6.864;2022-08-03T12:32:51;32.88;33.83
74081;SHT31;62438;52.228;6.864;2022-08-03T12:34:52;33.22;34.85
74081;SHT31;62438;52.228;6.864;2022-08-03T12:36:54;33.13;35.99
74081;SHT31;62438;52.228;6.864;2022-08-03T12:39:01;33.45;35.27
74081;SHT31;62438;52.228;6.864;2022-08-03T12:41:05;33.33;35.19
74081;SHT31;62438;52.228;6.864;2022-08-03T12:43:13;33.25;35.23
74081;SHT31;62438;52.228;6.864;2022-08-03T12:45:23;33.56;35.08
74081;SHT31;62438;52.228;6.864;2022-08-03T12:47:24;33.46;35.22
74081;SHT31;62438;52.228;6.864;2022-08-03T12:49:25;33.59;35.00
74081;SHT31;62438;52.228;6.864;2022-08-03T12:51:26;33.81;34.85
74081;SHT31;62438;52.228;6.864;2022-08-03T12:53:28;33.66;34.57
74081;SHT31;62438;52.228;6.864;2022-08-03T12:55:29;33.36;35.47
74081;SHT31;62438;52.228;6.864;2022-08-03T12:57:40;33.52;34.34
74081;SHT31;62438;52.228;6.864;2022-08-03T12:59:42;33.06;34.68
74081;SHT31;62438;52.228;6.864;2022-08-03T13:01:42;33.22;35.51
74081;SHT31;62438;52.228;6.864;2022-08-03T13:03:45;33.30;35.59
74081;SHT31;62438;52.228;6.864;2022-08-03T13:05:46;32.95;35.20
74081;SHT31;62438;52.228;6.864;2022-08-03T13:07:46;33.25;34.23
74081;SHT31;62438;52.228;6.864;2022-08-03T13:09:54;33.37;33.63
74081;SHT31;62438;52.228;6.864;2022-08-03T13:12:11;33.05;34.17
74081;SHT31;62438;52.228;6.864;2022-08-03T13:14:12;32.95;35.81
74081;SHT31;62438;52.228;6.864;2022-08-03T13:16:13;33.21;35.14
74081;SHT31;62438;52.228;6.864;2022-08-03T13:18:13;33.23;34.82
74081;SHT31;62438;52.228;6.864;2022-08-03T13:20:14;32.63;35.78
74081;SHT31;62438;52.228;6.864;2022-08-03T13:22:17;33.39;35.03
74081;SHT31;62438;52.228;6.864;2022-08-03T13:24:18;33.63;31.88
74081;SHT31;62438;52.228;6.864;2022-08-03T13:26:18;33.43;32.72
74081;SHT31;62438;52.228;6.864;2022-08-03T13:28:18;33.30;32.25